sensor_id;sensor_type;location;lat;lon;timestamp;pressure;altitude;pressure_sealevel;temperature;humidity
13954;BME280;7049;49.444;8.522;2022-09-20T00:04:15;78186.38;;;-3.47;91.01
13954;BME280;7049;49.444;8.522;2022-09-20T00:09:17;78194.75;;;-3.47;90.95
13954;BME280;7049;49.444;8.522;2022-09-20T00:14:19;78194.75;;;-3.47;90.73
13954;BME280;7049;49.444;8.522;2022-09-20T00:19:21;78194.75;;;-3.47;90.74
13954;BME280;7049;49.444;8.522;2022-09-20T00:24:22;78198.91;;;-3.47;90.90
13954;BME280;7049;49.444;8.522;2022-09-20T00:29:25;78203.09;;;-3.47;91.04
13954;BME280;7049;49.444;8.522;2022-09-20T00:34:27;78207.28;;;-3.47;91.25
13954;BME280;7049;49.444;8.522;2022-09-20T00:39:46;78207.28;;;-3.47;91.45
13954;BME280;7049;49.444;8.522;2022-09-20T00:44:55;78217.75;;;-3.47;91.74
13954;BME280;7049;49.444;8.522;2022-09-20T00:50:02;78215.66;;;-3.47;91.67
13954;BME280;7049;49.444;8.522;2022-09-20T00:55:07;78219.84;;;-3.47;91.53
13954;BME280;7049;49.444;8.522;2022-09-20T01:00:11;78232.41;;;-3.47;91.33
13954;BME280;7049;49.444;8.522;2022-09-20T01:05:14;78228.22;;;-3.47;91.04
13954;BME280;7049;49.444;8.522;2022-09-20T01:10:16;78240.78;;;-3.47;90.97
13954;BME280;7049;49.444;8.522;2022-09-20T01:15:19;78238.69;;;-3.47;90.77
13954;BME280;7049;49.444;8.522;2022-09-20T01:20:24;78244.97;;;-3.47;90.63
13954;BME280;7049;49.444;8.522;2022-09-20T01:25:40;78253.34;;;-3.47;90.47
13954;BME280;7049;49.444;8.522;2022-09-20T01:30:56;78251.25;;;-3.47;90.62
13954;BME280;7049;49.444;8.522;2022-09-20T01:36:04;78257.53;;;-3.47;90.46
13954;BME280;7049;49.444;8.522;2022-09-20T01:41:09;78257.53;;;-3.47;91.03
13954;BME280;7049;49.444;8.522;2022-09-20T01:46:24;78263.78;;;-3.47;91.29
13954;BME280;7049;49.444;8.522;2022-09-20T01:52:08;78263.78;;;-3.47;91.32
13954;BME280;7049;49.444;8.522;2022-09-20T01:57:38;78257.53;;;-3.47;91.52
13954;BME280;7049;49.444;8.522;2022-09-20T02:08:47;78251.25;;;-3.47;91.76
13954;BME280;7049;49.444;8.522;2022-09-20T02:14:13;78249.16;;;-3.47;91.76
13954;BME280;7049;49.444;8.522;2022-09-20T02:19:28;78251.25;;;-3.47;91.82
13954;BME280;7049;49.444;8.522;2022-09-20T02:24:38;78257.53;;;-3.47;92.21
13954;BME280;7049;49.444;8.522;2022-09-20T02:29:47;78257.53;;;-3.47;92.39
13954;BME280;7049;49.444;8.522;2022-09-20T02:40:57;78263.78;;;-3.47;92.14
13954;BME280;7049;49.444;8.522;2022-09-20T02:46:07;78261.69;;;-3.47;92.20
13954;BME280;7049;49.444;8.522;2022-09-20T02:51:17;78270.06;;;-3.47;92.01
13954;BME280;7049;49.444;8.522;2022-09-20T02:56:29;78278.44;;;-3.47;92.09
13954;BME280;7049;49.444;8.522;2022-09-20T03:01:42;78286.81;;;-3.47;91.85
13954;BME280;7049;49.444;8.522;2022-09-20T03:06:50;78293.09;;;-3.47;91.82
13954;BME280;7049;49.444;8.522;2022-09-20T03:12:03;78299.38;;;-3.47;91.87
13954;BME280;7049;49.444;8.522;2022-09-20T03:17:32;78301.47;;;-3.47;91.98
13954;BME280;7049;49.444;8.522;2022-09-20T03:22:54;78303.56;;;-3.47;92.09
13954;BME280;7049;49.444;8.522;2022-09-20T03:28:07;78307.75;;;-3.47;92.09
13954;BME280;7049;49.444;8.522;2022-09-20T03:33:20;78307.75;;;-3.47;91.99
13954;BME280;7049;49.444;8.522;2022-09-20T03:44:12;78318.22;;;-3.47;91.22
13954;BME280;7049;49.444;8.522;2022-09-20T03:55:18;78311.94;;;-3.47;91.27
13954;BME280;7049;49.444;8.522;2022-09-20T04:00:34;78324.47;;;-3.47;91.13
13954;BME280;7049;49.444;8.522;2022-09-20T04:05:47;78328.66;;;-3.47;90.88
13954;BME280;7049;49.444;8.522;2022-09-20T04:11:00;78337.03;;;-3.47;90.35
13954;BME280;7049;49.444;8.522;2022-09-20T04:16:22;78357.97;;;-3.47;89.98
13954;BME280;7049;49.444;8.522;2022-09-20T04:21:31;78370.53;;;-3.47;89.23
13954;BME280;7049;49.444;8.522;2022-09-20T04:26:40;78370.53;;;-3.47;88.59
13954;BME280;7049;49.444;8.522;2022-09-20T04:31:49;78383.09;;;-3.47;88.15
13954;BME280;7049;49.444;8.522;2022-09-20T04:36:59;78397.72;;;-3.47;87.78
13954;BME280;7049;49.444;8.522;2022-09-20T04:42:23;78418.66;;;-3.47;87.22
13954;BME280;7049;49.444;8.522;2022-09-20T04:53:42;78450.06;;;-3.47;86.95
13954;BME280;7049;49.444;8.522;2022-09-20T04:58:48;78460.53;;;-3.47;86.81
13954;BME280;7049;49.444;8.522;2022-09-20T05:09:54;78498.19;;;-3.47;86.38
13954;BME280;7049;49.444;8.522;2022-09-20T05:15:19;78504.47;;;-3.47;86.65
13954;BME280;7049;49.444;8.522;2022-09-20T05:20:49;78512.84;;;-3.47;86.86
13954;BME280;7049;49.444;8.522;2022-09-20T05:26:09;78525.41;;;-3.47;86.52
13954;BME280;7049;49.444;8.522;2022-09-20T05:31:16;78540.06;;;-3.47;86.69
13954;BME280;7049;49.444;8.522;2022-09-20T05:36:28;78537.97;;;-3.47;86.57
13954;BME280;7049;49.444;8.522;2022-09-20T05:41:36;78540.06;;;-3.47;86.95
13954;BME280;7049;49.444;8.522;2022-09-20T05:46:50;78548.41;;;-3.47;87.11
13954;BME280;7049;49.444;8.522;2022-09-20T05:52:08;78550.50;;;-3.47;87.72
13954;BME280;7049;49.444;8.522;2022-09-20T05:57:20;78550.50;;;-3.47;87.77
13954;BME280;7049;49.444;8.522;2022-09-20T06:02:39;78548.41;;;-3.47;88.39
13954;BME280;7049;49.444;8.522;2022-09-20T06:08:08;78531.69;;;-3.47;89.05
13954;BME280;7049;49.444;8.522;2022-09-20T06:13:26;78519.13;;;-3.47;90.27
13954;BME280;7049;49.444;8.522;2022-09-20T06:18:37;78502.38;;;-3.47;91.13
13954;BME280;7049;49.444;8.522;2022-09-20T06:23:42;78487.72;;;-3.47;91.52
13954;BME280;7049;49.444;8.522;2022-09-20T06:28:46;78479.34;;;-3.47;91.60
13954;BME280;7049;49.444;8.522;2022-09-20T06:33:55;78477.25;;;-3.47;92.12
13954;BME280;7049;49.444;8.522;2022-09-20T06:39:06;78462.63;;;-3.47;92.62
13954;BME280;7049;49.444;8.522;2022-09-20T06:44:31;78458.44;;;-3.47;92.71
13954;BME280;7049;49.444;8.522;2022-09-20T06:49:32;78445.88;;;-3.47;92.52
13954;BME280;7049;49.444;8.522;2022-09-20T06:54:36;78433.31;;;-3.47;91.99
13954;BME280;7049;49.444;8.522;2022-09-20T06:59:38;78410.28;;;-3.47;91.45
13954;BME280;7049;49.444;8.522;2022-09-20T07:04:39;78393.56;;;-3.47;90.69
13954;BME280;7049;49.444;8.522;2022-09-20T07:09:44;78381.00;;;-3.47;90.60
13954;BME280;7049;49.444;8.522;2022-09-20T07:14:45;78368.44;;;-3.47;90.11
13954;BME280;7049;49.444;8.522;2022-09-20T07:19:47;78343.31;;;-3.47;89.71
13954;BME280;7049;49.444;8.522;2022-09-20T07:24:49;78341.22;;;-3.47;89.44
13954;BME280;7049;49.444;8.522;2022-09-20T07:29:51;78332.84;;;-3.47;88.07
13954;BME280;7049;49.444;8.522;2022-09-20T07:34:53;78324.47;;;-3.47;87.05
13954;BME280;7049;49.444;8.522;2022-09-20T07:39:56;78286.81;;;-3.47;86.69
13954;BME280;7049;49.444;8.522;2022-09-20T07:44:57;78253.34;;;-3.47;86.37
13954;BME280;7049;49.444;8.522;2022-09-20T07:50:01;78232.41;;;-3.47;85.97
13954;BME280;7049;49.444;8.522;2022-09-20T07:55:04;78203.09;;;-3.47;84.84
13954;BME280;7049;49.444;8.522;2022-09-20T08:00:08;78173.81;;;-3.47;83.99
13954;BME280;7049;49.444;8.522;2022-09-20T08:05:09;78148.69;;;-3.47;82.44
13954;BME280;7049;49.444;8.522;2022-09-20T08:10:12;78136.16;;;-3.47;80.92
13954;BME280;7049;49.444;8.522;2022-09-20T08:15:14;78111.03;;;-3.47;81.01
13954;BME280;7049;49.444;8.522;2022-09-20T08:20:15;78077.56;;;-3.47;81.04
13954;BME280;7049;49.444;8.522;2022-09-20T08:25:18;78052.44;;;-3.47;77.85
13954;BME280;7049;49.444;8.522;2022-09-20T08:30:20;78056.63;;;-3.47;74.79
13954;BME280;7049;49.444;8.522;2022-09-20T08:35:22;78056.63;;;-3.47;75.89
13954;BME280;7049;49.444;8.522;2022-09-20T08:40:27;78073.38;;;-3.47;73.18
13954;BME280;7049;49.444;8.522;2022-09-20T08:45:30;78092.19;;;-3.47;73.91
13954;BME280;7049;49.444;8.522;2022-09-20T08:50:31;78079.63;;;-3.47;76.21
13954;BME280;7049;49.444;8.522;2022-09-20T08:55:35;78060.81;;;-3.47;76.71
13954;BME280;7049;49.444;8.522;2022-09-20T09:00:43;78056.63;;;-3.47;73.81
13954;BME280;7049;49.444;8.522;2022-09-20T09:05:47;78052.44;;;-3.47;72.74
13954;BME280;7049;49.444;8.522;2022-09-20T09:10:52;78029.41;;;-3.47;72.53
13954;BME280;7049;49.444;8.522;2022-09-20T09:15:56;77968.72;;;-3.47;73.49
13954;BME280;7049;49.444;8.522;2022-09-20T09:20:59;77939.44;;;-3.47;70.46
13954;BME280;7049;49.444;8.522;2022-09-20T09:26:04;77939.44;;;-3.47;70.34
13954;BME280;7049;49.444;8.522;2022-09-20T09:31:20;77958.28;;;-3.47;68.67
13954;BME280;7049;49.444;8.522;2022-09-20T09:36:23;77968.72;;;-3.47;68.62
13954;BME280;7049;49.444;8.522;2022-09-20T09:41:29;77972.91;;;-3.47;69.05
13954;BME280;7049;49.444;8.522;2022-09-20T09:46:36;77968.72;;;-3.47;67.08
13954;BME280;7049;49.444;8.522;2022-09-20T09:51:38;77977.09;;;-3.47;68.32
13954;BME280;7049;49.444;8.522;2022-09-20T09:56:51;77995.94;;;-3.47;68.47
13954;BME280;7049;49.444;8.522;2022-09-20T10:02:01;77993.84;;;-3.47;69.97
13954;BME280;7049;49.444;8.522;2022-09-20T10:07:13;77989.66;;;-3.47;70.68
13954;BME280;7049;49.444;8.522;2022-09-20T10:12:29;77995.94;;;-3.47;70.76
13954;BME280;7049;49.444;8.522;2022-09-20T10:17:45;77993.84;;;-3.47;71.02
13954;BME280;7049;49.444;8.522;2022-09-20T10:22:56;77995.94;;;-3.47;70.09
13954;BME280;7049;49.444;8.522;2022-09-20T10:28:12;77981.28;;;-3.47;69.52
13954;BME280;7049;49.444;8.522;2022-09-20T10:33:24;77977.09;;;-3.47;68.97
13954;BME280;7049;49.444;8.522;2022-09-20T10:38:31;77933.16;;;-3.47;68.43
13954;BME280;7049;49.444;8.522;2022-09-20T10:43:46;77841.09;;;-3.47;65.97
13954;BME280;7049;49.444;8.522;2022-09-20T10:49:01;77776.22;;;-3.47;64.89
13954;BME280;7049;49.444;8.522;2022-09-20T10:54:09;77782.50;;;-3.47;62.58
13954;BME280;7049;49.444;8.522;2022-09-20T10:59:30;77803.41;;;-3.47;62.31
13954;BME280;7049;49.444;8.522;2022-09-20T11:05:00;77828.53;;;-3.47;61.63
13954;BME280;7049;49.444;8.522;2022-09-20T11:10:14;77868.28;;;-3.47;62.37
13954;BME280;7049;49.444;8.522;2022-09-20T11:15:21;77901.78;;;-3.47;66.21
13954;BME280;7049;49.444;8.522;2022-09-20T11:20:27;77916.41;;;-3.47;68.27
13954;BME280;7049;49.444;8.522;2022-09-20T11:25:33;77928.97;;;-3.47;69.25
13954;BME280;7049;49.444;8.522;2022-09-20T11:30:47;77876.66;;;-3.47;69.22
13954;BME280;7049;49.444;8.522;2022-09-20T11:35:54;77830.63;;;-3.47;67.16
13954;BME280;7049;49.444;8.522;2022-09-20T11:41:01;77843.19;;;-3.47;63.24
13954;BME280;7049;49.444;8.522;2022-09-20T11:46:07;77876.66;;;-3.47;60.75
13954;BME280;7049;49.444;8.522;2022-09-20T11:51:24;77899.69;;;-3.47;60.69
13954;BME280;7049;49.444;8.522;2022-09-20T11:56:29;77901.78;;;-3.47;62.31
13954;BME280;7049;49.444;8.522;2022-09-20T12:01:34;77870.38;;;-3.47;63.46
13954;BME280;7049;49.444;8.522;2022-09-20T12:06:37;77818.06;;;-3.47;64.23
13954;BME280;7049;49.444;8.522;2022-09-20T12:11:41;77772.03;;;-3.47;60.34
13954;BME280;7049;49.444;8.522;2022-09-20T12:16:46;77726.00;;;-3.47;59.61
13954;BME280;7049;49.444;8.522;2022-09-20T12:22:24;77684.16;;;-3.47;54.30
13954;BME280;7049;49.444;8.522;2022-09-20T12:27:54;77648.59;;;-3.47;54.55
13954;BME280;7049;49.444;8.522;2022-09-20T12:32:58;77608.84;;;-3.47;55.35
13954;BME280;7049;49.444;8.522;2022-09-20T12:38:15;77598.38;;;-3.47;52.51
13954;BME280;7049;49.444;8.522;2022-09-20T12:43:18;77621.38;;;-3.47;51.86
13954;BME280;7049;49.444;8.522;2022-09-20T12:48:23;77615.09;;;-3.47;52.29
13954;BME280;7049;49.444;8.522;2022-09-20T12:53:25;77585.81;;;-3.47;51.82
13954;BME280;7049;49.444;8.522;2022-09-20T12:58:32;77558.63;;;-3.47;44.16
13954;BME280;7049;49.444;8.522;2022-09-20T13:03:38;77550.25;;;-3.47;43.53
13954;BME280;7049;49.444;8.522;2022-09-20T13:08:42;77554.44;;;-3.47;44.01
13954;BME280;7049;49.444;8.522;2022-09-20T13:13:47;77552.34;;;-3.47;43.87
13954;BME280;7049;49.444;8.522;2022-09-20T13:18:58;77558.63;;;-3.47;43.33
13954;BME280;7049;49.444;8.522;2022-09-20T13:24:01;77564.91;;;-3.47;43.12
13954;BME280;7049;49.444;8.522;2022-09-20T13:29:06;77579.53;;;-3.47;43.21
13954;BME280;7049;49.444;8.522;2022-09-20T13:34:28;77602.56;;;-3.47;42.52
13954;BME280;7049;49.444;8.522;2022-09-20T13:39:32;77606.75;;;-3.47;43.35
13954;BME280;7049;49.444;8.522;2022-09-20T13:44:37;77592.09;;;-3.47;46.69
13954;BME280;7049;49.444;8.522;2022-09-20T13:49:41;77592.09;;;-3.47;48.48
13954;BME280;7049;49.444;8.522;2022-09-20T13:54:43;77608.84;;;-3.47;48.32
13954;BME280;7049;49.444;8.522;2022-09-20T13:59:45;77621.38;;;-3.47;47.79
13954;BME280;7049;49.444;8.522;2022-09-20T14:04:50;77625.56;;;-3.47;49.19
13954;BME280;7049;49.444;8.522;2022-09-20T14:09:53;77642.31;;;-3.47;49.54
13954;BME280;7049;49.444;8.522;2022-09-20T14:14:55;77646.50;;;-3.47;50.31
13954;BME280;7049;49.444;8.522;2022-09-20T14:19:58;77654.88;;;-3.47;51.07
13954;BME280;7049;49.444;8.522;2022-09-20T14:25:01;77656.94;;;-3.47;52.65
13954;BME280;7049;49.444;8.522;2022-09-20T14:30:04;77652.78;;;-3.47;52.47
13954;BME280;7049;49.444;8.522;2022-09-20T14:35:14;77667.41;;;-3.47;51.92
13954;BME280;7049;49.444;8.522;2022-09-20T14:40:27;77656.94;;;-3.47;51.50
13954;BME280;7049;49.444;8.522;2022-09-20T14:45:30;77667.41;;;-3.47;51.09
13954;BME280;7049;49.444;8.522;2022-09-20T14:50:35;77667.41;;;-3.47;50.78
13954;BME280;7049;49.444;8.522;2022-09-20T14:55:38;77671.59;;;-3.47;50.12
13954;BME280;7049;49.444;8.522;2022-09-20T15:00:50;77671.59;;;-3.47;49.39
13954;BME280;7049;49.444;8.522;2022-09-20T15:05:54;77675.78;;;-3.47;47.89
13954;BME280;7049;49.444;8.522;2022-09-20T15:10:58;77684.16;;;-3.47;45.40
13954;BME280;7049;49.444;8.522;2022-09-20T15:15:59;77696.72;;;-3.47;45.62
13954;BME280;7049;49.444;8.522;2022-09-20T15:21:02;77705.09;;;-3.47;46.07
13954;BME280;7049;49.444;8.522;2022-09-20T15:26:06;77717.63;;;-3.47;46.36
13954;BME280;7049;49.444;8.522;2022-09-20T15:31:09;77730.19;;;-3.47;45.56
13954;BME280;7049;49.444;8.522;2022-09-20T15:36:11;77742.75;;;-3.47;45.54
13954;BME280;7049;49.444;8.522;2022-09-20T15:41:13;77751.13;;;-3.47;45.12
13954;BME280;7049;49.444;8.522;2022-09-20T15:46:19;77759.47;;;-3.47;46.58
13954;BME280;7049;49.444;8.522;2022-09-20T15:51:23;77759.47;;;-3.47;47.54
13954;BME280;7049;49.444;8.522;2022-09-20T15:56:26;77763.66;;;-3.47;48.44
13954;BME280;7049;49.444;8.522;2022-09-20T16:01:29;77734.38;;;-3.47;48.29
13954;BME280;7049;49.444;8.522;2022-09-20T16:06:33;77730.19;;;-3.47;47.34
13954;BME280;7049;49.444;8.522;2022-09-20T16:11:35;77740.66;;;-3.47;47.96
13954;BME280;7049;49.444;8.522;2022-09-20T16:16:37;77763.66;;;-3.47;49.13
13954;BME280;7049;49.444;8.522;2022-09-20T16:21:42;77776.22;;;-3.47;49.83
13954;BME280;7049;49.444;8.522;2022-09-20T16:26:43;77788.78;;;-3.47;50.95
13954;BME280;7049;49.444;8.522;2022-09-20T16:31:47;77801.34;;;-3.47;52.03
13954;BME280;7049;49.444;8.522;2022-09-20T16:36:52;77818.06;;;-3.47;52.52
13954;BME280;7049;49.444;8.522;2022-09-20T16:41:56;77830.63;;;-3.47;52.40
13954;BME280;7049;49.444;8.522;2022-09-20T16:46:58;77843.19;;;-3.47;51.68
13954;BME280;7049;49.444;8.522;2022-09-20T16:52:03;77857.81;;;-3.47;52.16
13954;BME280;7049;49.444;8.522;2022-09-20T16:57:04;77868.28;;;-3.47;52.45
13954;BME280;7049;49.444;8.522;2022-09-20T17:02:09;77880.84;;;-3.47;53.57
13954;BME280;7049;49.444;8.522;2022-09-20T17:07:12;77893.41;;;-3.47;55.04
13954;BME280;7049;49.444;8.522;2022-09-20T17:12:13;77901.78;;;-3.47;56.30
13954;BME280;7049;49.444;8.522;2022-09-20T17:17:18;77918.50;;;-3.47;57.39
13954;BME280;7049;49.444;8.522;2022-09-20T17:22:22;77931.06;;;-3.47;58.34
13954;BME280;7049;49.444;8.522;2022-09-20T17:27:24;77949.91;;;-3.47;57.65
13954;BME280;7049;49.444;8.522;2022-09-20T17:32:25;77970.81;;;-3.47;57.29
13954;BME280;7049;49.444;8.522;2022-09-20T17:37:28;77983.38;;;-3.47;56.51
13954;BME280;7049;49.444;8.522;2022-09-20T17:42:30;78004.31;;;-3.47;55.99
13954;BME280;7049;49.444;8.522;2022-09-20T17:47:32;78016.88;;;-3.47;57.33
13954;BME280;7049;49.444;8.522;2022-09-20T17:52:35;78035.69;;;-3.47;57.88
13954;BME280;7049;49.444;8.522;2022-09-20T17:57:37;78046.16;;;-3.47;59.22
13954;BME280;7049;49.444;8.522;2022-09-20T18:02:38;78071.28;;;-3.47;60.11
13954;BME280;7049;49.444;8.522;2022-09-20T18:07:41;78085.91;;;-3.47;61.09
13954;BME280;7049;49.444;8.522;2022-09-20T18:12:42;78108.94;;;-3.47;61.65
13954;BME280;7049;49.444;8.522;2022-09-20T18:17:44;78129.88;;;-3.47;62.75
13954;BME280;7049;49.444;8.522;2022-09-20T18:22:47;78152.88;;;-3.47;63.34
13954;BME280;7049;49.444;8.522;2022-09-20T18:27:49;78178.00;;;-3.47;63.64
13954;BME280;7049;49.444;8.522;2022-09-20T18:32:51;78194.75;;;-3.47;64.60
13954;BME280;7049;49.444;8.522;2022-09-20T18:37:54;78207.28;;;-3.47;65.17
13954;BME280;7049;49.444;8.522;2022-09-20T18:42:56;78228.22;;;-3.47;65.94
13954;BME280;7049;49.444;8.522;2022-09-20T18:47:59;78238.69;;;-3.47;66.91
13954;BME280;7049;49.444;8.522;2022-09-20T18:53:03;78261.69;;;-3.47;67.69
13954;BME280;7049;49.444;8.522;2022-09-20T18:58:04;78278.44;;;-3.47;68.47
13954;BME280;7049;49.444;8.522;2022-09-20T19:03:09;78301.47;;;-3.47;68.78
13954;BME280;7049;49.444;8.522;2022-09-20T19:08:24;78316.13;;;-3.47;69.31
13954;BME280;7049;49.444;8.522;2022-09-20T19:13:33;78334.94;;;-3.47;70.00
13954;BME280;7049;49.444;8.522;2022-09-20T19:18:53;78353.78;;;-3.47;70.30
13954;BME280;7049;49.444;8.522;2022-09-20T19:24:10;78374.72;;;-3.47;70.78
13954;BME280;7049;49.444;8.522;2022-09-20T19:29:18;78393.56;;;-3.47;71.26
13954;BME280;7049;49.444;8.522;2022-09-20T19:34:21;78406.09;;;-3.47;71.73
13954;BME280;7049;49.444;8.522;2022-09-20T19:39:32;78422.84;;;-3.47;72.01
13954;BME280;7049;49.444;8.522;2022-09-20T19:44:41;78429.13;;;-3.47;72.13
13954;BME280;7049;49.444;8.522;2022-09-20T19:49:52;78441.69;;;-3.47;72.33
13954;BME280;7049;49.444;8.522;2022-09-20T19:54:56;78452.16;;;-3.47;72.57
13954;BME280;7049;49.444;8.522;2022-09-20T19:59:58;78458.44;;;-3.47;72.98
13954;BME280;7049;49.444;8.522;2022-09-20T20:05:00;78471.00;;;-3.47;73.60
13954;BME280;7049;49.444;8.522;2022-09-20T20:10:11;78479.34;;;-3.47;73.91
13954;BME280;7049;49.444;8.522;2022-09-20T20:15:31;78494.00;;;-3.47;73.94
13954;BME280;7049;49.444;8.522;2022-09-20T20:20:38;78502.38;;;-3.47;74.11
13954;BME280;7049;49.444;8.522;2022-09-20T20:25:48;78512.84;;;-3.47;74.49
13954;BME280;7049;49.444;8.522;2022-09-20T20:30:53;78514.94;;;-3.47;74.99
13954;BME280;7049;49.444;8.522;2022-09-20T20:35:56;78521.22;;;-3.47;75.24
13954;BME280;7049;49.444;8.522;2022-09-20T20:41:01;78529.59;;;-3.47;75.75
13954;BME280;7049;49.444;8.522;2022-09-20T20:46:05;78531.69;;;-3.47;76.34
13954;BME280;7049;49.444;8.522;2022-09-20T20:51:08;78535.88;;;-3.47;76.98
13954;BME280;7049;49.444;8.522;2022-09-20T20:56:14;78529.59;;;-3.47;77.38
13954;BME280;7049;49.444;8.522;2022-09-20T21:01:17;78531.69;;;-3.47;78.00
13954;BME280;7049;49.444;8.522;2022-09-20T21:06:20;78535.88;;;-3.47;78.48
13954;BME280;7049;49.444;8.522;2022-09-20T21:11:25;78535.88;;;-3.47;78.87
13954;BME280;7049;49.444;8.522;2022-09-20T21:16:28;78533.78;;;-3.47;79.31
13954;BME280;7049;49.444;8.522;2022-09-20T21:21:32;78535.88;;;-3.47;79.79
13954;BME280;7049;49.444;8.522;2022-09-20T21:26:36;78535.88;;;-3.47;79.99
13954;BME280;7049;49.444;8.522;2022-09-20T21:31:38;78527.50;;;-3.47;80.22
13954;BME280;7049;49.444;8.522;2022-09-20T21:36:40;78527.50;;;-3.47;80.55
13954;BME280;7049;49.444;8.522;2022-09-20T21:41:45;78531.69;;;-3.47;80.67
13954;BME280;7049;49.444;8.522;2022-09-20T21:46:47;78535.88;;;-3.47;80.91
13954;BME280;7049;49.444;8.522;2022-09-20T21:51:49;78529.59;;;-3.47;80.98
13954;BME280;7049;49.444;8.522;2022-09-20T21:56:53;78537.97;;;-3.47;80.31
13954;BME280;7049;49.444;8.522;2022-09-20T22:01:58;78544.25;;;-3.47;80.09
13954;BME280;7049;49.444;8.522;2022-09-20T22:06:59;78546.31;;;-3.47;79.88
13954;BME280;7049;49.444;8.522;2022-09-20T22:12:03;78546.31;;;-3.47;80.28
13954;BME280;7049;49.444;8.522;2022-09-20T22:17:04;78556.78;;;-3.47;80.63
13954;BME280;7049;49.444;8.522;2022-09-20T22:22:05;78556.78;;;-3.47;80.94
13954;BME280;7049;49.444;8.522;2022-09-20T22:27:09;78554.69;;;-3.47;80.99
13954;BME280;7049;49.444;8.522;2022-09-20T22:32:10;78558.88;;;-3.47;80.79
13954;BME280;7049;49.444;8.522;2022-09-20T22:37:12;78569.34;;;-3.47;80.67
13954;BME280;7049;49.444;8.522;2022-09-20T22:42:15;78569.34;;;-3.47;80.53
13954;BME280;7049;49.444;8.522;2022-09-20T22:47:16;78575.63;;;-3.47;80.54
13954;BME280;7049;49.444;8.522;2022-09-20T22:52:18;78586.09;;;-3.47;80.25
13954;BME280;7049;49.444;8.522;2022-09-20T22:57:21;78592.38;;;-3.47;80.05
13954;BME280;7049;49.444;8.522;2022-09-20T23:02:22;78604.94;;;-3.47;79.79
13954;BME280;7049;49.444;8.522;2022-09-20T23:07:24;78613.31;;;-3.47;79.70
13954;BME280;7049;49.444;8.522;2022-09-20T23:12:26;78625.84;;;-3.47;79.53
13954;BME280;7049;49.444;8.522;2022-09-20T23:17:28;78638.41;;;-3.47;79.55
13954;BME280;7049;49.444;8.522;2022-09-20T23:22:29;78640.50;;;-3.47;79.26
13954;BME280;7049;49.444;8.522;2022-09-20T23:27:32;78646.78;;;-3.47;79.23
13954;BME280;7049;49.444;8.522;2022-09-20T23:32:34;78659.34;;;-3.47;79.29
13954;BME280;7049;49.444;8.522;2022-09-20T23:37:35;78671.91;;;-3.47;79.21
13954;BME280;7049;49.444;8.522;2022-09-20T23:42:38;78674.00;;;-3.47;79.34
13954;BME280;7049;49.444;8.522;2022-09-20T23:47:39;78684.47;;;-3.47;79.43
13954;BME280;7049;49.444;8.522;2022-09-20T23:52:41;78699.13;;;-3.47;79.43
13954;BME280;7049;49.444;8.522;2022-09-20T23:57:43;78701.22;;;-3.47;79.53
